createdAt,value
2019-01-28T00:00:50.615Z,3.80
2019-01-28T00:03:20.883Z,3.70
2019-01-28T00:05:51.071Z,3.80
2019-01-28T00:08:21.053Z,3.70
2019-01-28T00:10:50.806Z,3.70
2019-01-28T00:13:20.781Z,3.70
2019-01-28T00:15:58.131Z,3.70
2019-01-28T00:18:28.049Z,3.60
2019-01-28T00:20:58.707Z,3.60
2019-01-28T00:23:29.081Z,3.60
2019-01-28T00:25:59.200Z,3.50
2019-01-28T00:28:29.677Z,3.50
2019-01-28T00:30:59.855Z,3.40
2019-01-28T00:33:30.046Z,3.50
2019-01-28T00:36:18.490Z,3.50
2019-01-28T00:38:48.533Z,3.50
2019-01-28T00:41:20.334Z,3.50
2019-01-28T00:43:51.157Z,3.50
2019-01-28T00:46:21.321Z,3.30
2019-01-28T00:48:51.538Z,3.40
2019-01-28T00:51:21.417Z,3.30
2019-01-28T00:53:51.459Z,3.30
2019-01-28T00:56:21.588Z,3.30
2019-01-28T00:59:13.099Z,3.40
2019-01-28T01:01:30.599Z,3.30
2019-01-28T01:04:02.455Z,3.30
2019-01-28T01:06:42.304Z,3.40
2019-01-28T01:09:12.519Z,3.40
2019-01-28T01:11:42.466Z,3.40
2019-01-28T01:14:15.824Z,3.40
2019-01-28T01:16:46.536Z,3.30
2019-01-28T01:19:16.303Z,3.30
2019-01-28T01:21:49.455Z,3.30
2019-01-28T01:24:20.214Z,3.30
2019-01-28T01:26:50.142Z,3.20
2019-01-28T01:29:20.264Z,3.20
2019-01-28T01:31:50.325Z,3.30
2019-01-28T01:34:20.555Z,3.20
2019-01-28T01:36:50.953Z,3.20
2019-01-28T01:39:20.916Z,3.20
2019-01-28T01:41:51.069Z,3.20
2019-01-28T01:44:21.316Z,3.10
2019-01-28T01:46:57.290Z,3.10
2019-01-28T01:49:27.769Z,3.20
2019-01-28T01:51:57.525Z,3.20
2019-01-28T01:54:27.515Z,3.20
2019-01-28T01:56:57.524Z,3.10
2019-01-28T01:59:27.768Z,3.10
2019-01-28T02:01:57.991Z,3.20
2019-01-28T02:04:28.010Z,3.10
2019-01-28T02:06:58.046Z,3.00
2019-01-28T02:09:32.111Z,3.00
2019-01-28T02:12:02.567Z,3.00
2019-01-28T02:14:32.824Z,3.00
2019-01-28T02:17:15.863Z,2.90
2019-01-28T02:19:46.349Z,2.90
2019-01-28T02:22:16.209Z,2.80
2019-01-28T02:24:46.483Z,2.80
2019-01-28T02:27:16.728Z,2.80
2019-01-28T02:29:46.608Z,2.90
2019-01-28T02:32:16.440Z,2.80
2019-01-28T02:34:46.471Z,2.90
2019-01-28T02:37:16.349Z,2.90
2019-01-28T02:39:46.378Z,2.80
2019-01-28T02:42:16.591Z,2.80
2019-01-28T02:44:46.612Z,2.80
2019-01-28T02:47:16.678Z,2.80
2019-01-28T02:49:46.273Z,2.90
2019-01-28T02:52:15.768Z,2.80
2019-01-28T02:54:45.751Z,2.70
2019-01-28T02:57:15.629Z,2.70
2019-01-28T02:59:45.752Z,2.70
2019-01-28T03:02:16.116Z,2.70
2019-01-28T03:04:58.249Z,2.70
2019-01-28T03:07:28.590Z,2.60
2019-01-28T03:09:58.453Z,2.60
2019-01-28T03:12:29.103Z,2.60
2019-01-28T03:14:59.073Z,2.60
2019-01-28T03:17:29.293Z,2.60
2019-01-28T03:20:00.028Z,2.60
2019-01-28T03:22:30.407Z,2.60
2019-01-28T03:25:00.343Z,2.50
2019-01-28T03:27:30.766Z,2.40
2019-01-28T03:30:00.682Z,2.40
2019-01-28T03:32:30.745Z,2.30
2019-01-28T03:35:00.629Z,2.30
2019-01-28T03:37:30.747Z,2.30
2019-01-28T03:40:00.643Z,2.30
2019-01-28T03:42:30.758Z,2.30
2019-01-28T03:45:00.892Z,2.30
2019-01-28T03:47:31.725Z,2.20
2019-01-28T03:50:01.653Z,2.30
2019-01-28T03:52:33.319Z,2.30
2019-01-28T03:55:03.264Z,2.20
2019-01-28T03:57:33.504Z,2.20
2019-01-28T04:00:03.387Z,2.30
2019-01-28T04:02:32.844Z,2.30
2019-01-28T04:05:02.848Z,2.30
2019-01-28T04:07:33.200Z,2.30
2019-01-28T04:10:03.284Z,2.30
2019-01-28T04:12:33.268Z,2.40
2019-01-28T04:15:03.012Z,2.40
2019-01-28T04:17:32.978Z,2.40
2019-01-28T04:20:02.842Z,2.40
2019-01-28T04:22:33.150Z,2.40
2019-01-28T04:25:03.442Z,2.30
2019-01-28T04:27:33.926Z,2.40
2019-01-28T04:30:04.466Z,2.40
2019-01-28T04:32:34.947Z,2.40
2019-01-28T04:35:05.820Z,2.40
2019-01-28T04:37:36.031Z,2.40
2019-01-28T04:40:06.514Z,2.40
2019-01-28T04:42:36.871Z,2.30
2019-01-28T04:45:08.930Z,2.40
2019-01-28T04:47:38.521Z,2.40
2019-01-28T04:50:10.393Z,2.40
2019-01-28T04:52:40.529Z,2.40
2019-01-28T04:55:11.309Z,2.50
2019-01-28T04:57:41.818Z,2.50
2019-01-28T05:00:16.944Z,2.60
2019-01-28T05:02:53.179Z,2.60
2019-01-28T05:05:23.291Z,2.50
2019-01-28T05:07:53.789Z,2.50
2019-01-28T05:10:24.749Z,2.40
2019-01-28T05:12:55.247Z,2.40
2019-01-28T05:15:25.875Z,2.40
2019-01-28T05:17:56.331Z,2.50
2019-01-28T05:20:26.959Z,2.50
2019-01-28T05:22:57.243Z,2.50
2019-01-28T05:25:27.271Z,2.50
2019-01-28T05:27:57.679Z,2.50
2019-01-28T05:30:27.890Z,2.50
2019-01-28T05:32:58.062Z,2.50
2019-01-28T05:35:28.721Z,2.40
2019-01-28T05:37:59.694Z,2.50
2019-01-28T05:40:29.664Z,2.50
2019-01-28T05:43:00.083Z,2.60
2019-01-28T05:45:30.260Z,2.50
2019-01-28T05:48:03.744Z,2.50
2019-01-28T05:50:33.706Z,2.50
2019-01-28T05:53:06.991Z,2.60
2019-01-28T05:55:37.348Z,2.60
2019-01-28T05:58:07.994Z,2.60
2019-01-28T06:00:43.528Z,2.70
2019-01-28T06:03:16.734Z,2.70
2019-01-28T06:05:51.193Z,2.70
2019-01-28T06:08:21.227Z,2.60
2019-01-28T06:10:52.567Z,2.60
2019-01-28T06:13:22.955Z,2.60
2019-01-28T06:15:54.019Z,2.70
2019-01-28T06:18:25.964Z,2.60
2019-01-28T06:20:55.796Z,2.60
2019-01-28T06:23:26.059Z,2.70
2019-01-28T06:25:56.194Z,2.60
2019-01-28T06:28:26.296Z,2.60
2019-01-28T06:30:55.997Z,2.70
2019-01-28T06:33:25.823Z,2.70
2019-01-28T06:35:55.815Z,2.70
2019-01-28T06:38:31.453Z,2.70
2019-01-28T06:41:01.450Z,2.70
2019-01-28T06:43:31.336Z,2.60
2019-01-28T06:46:01.332Z,2.70
2019-01-28T06:48:31.101Z,2.70
2019-01-28T06:51:01.011Z,2.70
2019-01-28T06:53:30.860Z,2.80
2019-01-28T06:56:00.735Z,2.70
2019-01-28T06:58:31.356Z,2.80
2019-01-28T07:01:01.338Z,2.80
2019-01-28T07:03:30.822Z,2.90
2019-01-28T07:06:00.614Z,3.00
2019-01-28T07:08:30.217Z,3.00
2019-01-28T07:11:00.490Z,3.00
2019-01-28T07:13:30.371Z,2.90
2019-01-28T07:16:01.571Z,2.90
2019-01-28T07:18:31.574Z,2.90
2019-01-28T07:21:01.331Z,2.90
2019-01-28T07:23:31.216Z,2.90
2019-01-28T07:26:01.094Z,3.00
2019-01-28T07:28:31.092Z,3.00
2019-01-28T07:31:01.005Z,3.00
2019-01-28T07:33:31.000Z,3.00
2019-01-28T07:36:00.849Z,3.00
2019-01-28T07:38:30.572Z,3.10
2019-01-28T07:41:00.611Z,3.20
2019-01-28T07:43:30.488Z,3.30
2019-01-28T07:46:00.249Z,3.20
2019-01-28T07:48:29.817Z,3.30
2019-01-28T07:50:59.727Z,3.20
2019-01-28T07:53:29.410Z,3.30
2019-01-28T07:55:59.168Z,3.30
2019-01-28T07:58:28.935Z,3.30
2019-01-28T08:00:58.706Z,3.30
2019-01-28T08:03:28.373Z,3.40
2019-01-28T08:05:58.082Z,3.40
2019-01-28T08:08:27.682Z,3.60
2019-01-28T08:10:57.394Z,3.60
2019-01-28T08:13:27.103Z,3.70
2019-01-28T08:15:56.798Z,3.80
2019-01-28T08:18:26.648Z,3.80
2019-01-28T08:20:56.166Z,3.80
2019-01-28T08:23:25.730Z,3.80
2019-01-28T08:26:14.138Z,3.80
2019-01-28T08:28:44.048Z,3.80
2019-01-28T08:31:13.806Z,3.90
2019-01-28T08:33:43.603Z,3.90
2019-01-28T08:36:13.214Z,3.90
2019-01-28T08:38:42.965Z,4.00
2019-01-28T08:41:12.727Z,4.00
2019-01-28T08:43:42.234Z,4.00
2019-01-28T08:46:11.638Z,3.90
2019-01-28T08:48:41.165Z,3.90
2019-01-28T08:51:10.539Z,3.90
2019-01-28T08:53:40.032Z,4.10
2019-01-28T08:56:16.668Z,4.20
2019-01-28T08:58:41.284Z,4.20
2019-01-28T09:01:11.170Z,4.20
2019-01-28T09:03:40.804Z,4.20
2019-01-28T09:06:10.590Z,4.20
2019-01-28T09:08:40.139Z,4.30
2019-01-28T09:11:09.844Z,4.30
2019-01-28T09:13:39.460Z,4.30
2019-01-28T09:16:09.363Z,4.30
2019-01-28T09:18:39.244Z,4.30
2019-01-28T09:21:08.700Z,4.40
2019-01-28T09:23:38.497Z,4.40
2019-01-28T09:26:08.579Z,4.40
2019-01-28T09:28:38.620Z,4.50
2019-01-28T09:31:08.521Z,4.40
2019-01-28T09:33:38.651Z,4.50
2019-01-28T09:36:08.522Z,4.50
2019-01-28T09:38:38.278Z,4.40
2019-01-28T09:41:08.347Z,4.50
2019-01-28T09:43:38.166Z,4.40
2019-01-28T09:46:08.152Z,4.40
2019-01-28T09:48:37.896Z,4.40
2019-01-28T09:51:07.378Z,4.50
2019-01-28T09:53:37.050Z,4.50
2019-01-28T09:56:06.959Z,4.60
2019-01-28T09:58:36.657Z,4.50
2019-01-28T10:01:06.566Z,4.50
2019-01-28T10:03:36.250Z,4.50
2019-01-28T10:06:06.055Z,4.50
2019-01-28T10:08:36.126Z,4.50
2019-01-28T10:11:06.122Z,4.60
2019-01-28T10:13:36.001Z,4.70
2019-01-28T10:16:05.793Z,4.70
2019-01-28T10:18:41.706Z,4.60
2019-01-28T10:21:07.437Z,4.60
2019-01-28T10:23:37.114Z,4.60
2019-01-28T10:26:07.086Z,4.70
2019-01-28T10:28:36.847Z,4.60
2019-01-28T10:31:06.891Z,4.60
2019-01-28T10:33:36.604Z,4.60
2019-01-28T10:36:06.719Z,4.60
2019-01-28T10:38:36.284Z,4.70
2019-01-28T10:41:06.241Z,4.80
2019-01-28T10:43:36.278Z,4.70
2019-01-28T10:46:06.360Z,4.50
2019-01-28T10:48:36.076Z,4.50
2019-01-28T10:51:06.239Z,4.40
2019-01-28T10:53:36.190Z,4.40
2019-01-28T10:56:06.597Z,4.50
2019-01-28T10:58:36.475Z,4.50
2019-01-28T11:01:06.356Z,4.40
2019-01-28T11:03:36.237Z,4.40
2019-01-28T11:06:05.879Z,4.50
2019-01-28T11:08:35.859Z,4.50
2019-01-28T11:11:06.127Z,4.50
2019-01-28T11:13:35.884Z,4.50
2019-01-28T11:16:06.110Z,4.50
2019-01-28T11:18:36.103Z,4.50
2019-01-28T11:21:05.870Z,4.60
2019-01-28T11:23:36.187Z,4.60
2019-01-28T11:26:06.472Z,4.50
2019-01-28T11:28:36.366Z,4.40
2019-01-28T11:31:11.120Z,4.40
2019-01-28T11:33:40.876Z,4.40
2019-01-28T11:36:11.891Z,4.30
2019-01-28T11:38:41.807Z,4.40
2019-01-28T11:41:11.879Z,4.30
2019-01-28T11:43:41.634Z,4.30
2019-01-28T11:46:11.310Z,4.30
2019-01-28T11:48:41.272Z,4.30
2019-01-28T11:51:10.920Z,4.40
2019-01-28T11:53:40.805Z,4.40
2019-01-28T11:56:10.549Z,4.30
2019-01-28T11:58:40.440Z,4.20
2019-01-28T12:01:24.713Z,4.10
2019-01-28T12:03:54.568Z,4.20
2019-01-28T12:06:24.336Z,4.00
2019-01-28T12:08:54.040Z,4.00
2019-01-28T12:11:24.111Z,3.90
2019-01-28T12:13:54.299Z,3.90
2019-01-28T12:16:24.188Z,3.80
2019-01-28T12:18:54.307Z,3.80
2019-01-28T12:21:23.877Z,3.90
2019-01-28T12:23:53.400Z,4.00
2019-01-28T12:26:23.207Z,3.90
2019-01-28T12:28:53.162Z,3.90
2019-01-28T12:31:23.750Z,4.00
2019-01-28T12:33:53.631Z,3.90
2019-01-28T12:36:23.564Z,4.00
2019-01-28T12:38:53.512Z,3.90
2019-01-28T12:41:23.209Z,3.90
2019-01-28T12:43:53.396Z,3.90
2019-01-28T12:46:23.388Z,3.70
2019-01-28T12:48:53.271Z,3.60
2019-01-28T12:51:23.076Z,3.60
2019-01-28T12:53:52.907Z,3.70
2019-01-28T12:56:22.509Z,3.70
2019-01-28T12:58:52.012Z,3.80
2019-01-28T13:01:22.191Z,3.70
2019-01-28T13:03:52.069Z,3.70
2019-01-28T13:06:22.037Z,3.70
2019-01-28T13:08:52.057Z,3.70
2019-01-28T13:11:22.082Z,3.80
2019-01-28T13:13:51.840Z,3.60
2019-01-28T13:16:21.351Z,3.60
2019-01-28T13:18:51.466Z,3.70
2019-01-28T13:21:21.494Z,3.70
2019-01-28T13:23:51.069Z,3.60
2019-01-28T13:26:20.870Z,3.60
2019-01-28T13:28:50.637Z,3.70
2019-01-28T13:31:20.352Z,3.60
2019-01-28T13:33:50.266Z,3.60
2019-01-28T13:36:20.510Z,3.50
2019-01-28T13:38:50.292Z,3.50
2019-01-28T13:41:20.310Z,3.60
2019-01-28T13:43:50.264Z,3.70
2019-01-28T13:46:20.236Z,3.70
2019-01-28T13:48:50.147Z,3.70
2019-01-28T13:51:19.915Z,3.70
2019-01-28T13:53:49.573Z,3.80
2019-01-28T13:56:34.736Z,3.70
2019-01-28T13:59:04.547Z,3.70
2019-01-28T14:01:34.155Z,3.70
2019-01-28T14:04:03.946Z,3.80
2019-01-28T14:06:33.825Z,3.70
2019-01-28T14:09:04.423Z,3.60
2019-01-28T14:11:33.952Z,3.60
2019-01-28T14:14:03.831Z,3.60
2019-01-28T14:16:33.561Z,3.50
2019-01-28T14:19:03.463Z,3.50
2019-01-28T14:21:33.045Z,3.60
2019-01-28T14:24:02.996Z,3.60
2019-01-28T14:26:32.575Z,3.60
2019-01-28T14:29:02.801Z,3.60
2019-01-28T14:31:32.905Z,3.50
2019-01-28T14:34:02.745Z,3.50
2019-01-28T14:36:32.507Z,3.50
2019-01-28T14:39:02.128Z,3.60
2019-01-28T14:41:31.733Z,3.60
2019-01-28T14:44:01.793Z,3.60
2019-01-28T14:46:31.662Z,3.40
2019-01-28T14:49:01.422Z,3.40
2019-01-28T14:51:31.059Z,3.40
2019-01-28T14:54:00.955Z,3.50
2019-01-28T14:56:30.582Z,3.40
2019-01-28T14:59:00.220Z,3.50
2019-01-28T15:01:29.910Z,3.50
2019-01-28T15:03:59.805Z,3.50
2019-01-28T15:06:29.556Z,3.60
2019-01-28T15:08:59.471Z,3.60
2019-01-28T15:11:29.562Z,3.70
2019-01-28T15:13:59.388Z,3.60
2019-01-28T15:16:29.139Z,3.60
2019-01-28T15:18:58.657Z,3.40
2019-01-28T15:21:28.432Z,3.40
2019-01-28T15:23:58.236Z,3.40
2019-01-28T15:26:28.019Z,3.50
2019-01-28T15:28:57.820Z,3.50
2019-01-28T15:31:28.058Z,3.30
2019-01-28T15:33:57.762Z,3.40
2019-01-28T15:36:27.567Z,3.40
2019-01-28T15:38:57.340Z,3.30
2019-01-28T15:41:27.246Z,3.30
2019-01-28T15:43:57.337Z,3.10
2019-01-28T15:46:27.698Z,3.10
2019-01-28T15:48:57.587Z,3.20
2019-01-28T15:51:27.582Z,3.10
2019-01-28T15:53:57.677Z,3.10
2019-01-28T15:56:27.576Z,3.20
2019-01-28T15:58:57.300Z,3.30
2019-01-28T16:01:26.919Z,3.30
2019-01-28T16:03:57.138Z,3.20
2019-01-28T16:06:44.756Z,3.20
2019-01-28T16:09:14.855Z,3.20
2019-01-28T16:11:44.833Z,3.30
2019-01-28T16:14:14.950Z,3.40
2019-01-28T16:16:44.738Z,3.40
2019-01-28T16:19:14.533Z,3.40
2019-01-28T16:21:44.539Z,3.40
2019-01-28T16:24:14.857Z,3.50
2019-01-28T16:26:44.867Z,3.50
2019-01-28T16:29:14.882Z,3.50
2019-01-28T16:31:44.973Z,3.40
2019-01-28T16:34:14.854Z,3.40
2019-01-28T16:36:44.923Z,3.40
2019-01-28T16:39:14.615Z,3.30
2019-01-28T16:41:44.374Z,3.20
2019-01-28T16:44:14.311Z,3.30
2019-01-28T16:46:44.509Z,3.30
2019-01-28T16:49:14.085Z,3.30
2019-01-28T16:51:43.818Z,3.20
2019-01-28T16:54:14.015Z,3.30
2019-01-28T16:56:43.890Z,3.30
2019-01-28T16:59:13.898Z,3.40
2019-01-28T17:01:43.588Z,3.30
2019-01-28T17:04:13.775Z,3.20
2019-01-28T17:06:43.655Z,3.30
2019-01-28T17:09:13.389Z,3.30
2019-01-28T17:11:43.413Z,3.30
2019-01-28T17:14:13.113Z,3.10
2019-01-28T17:16:43.174Z,3.20
2019-01-28T17:19:13.187Z,3.20
2019-01-28T17:21:43.185Z,3.10
2019-01-28T17:24:13.051Z,3.00
2019-01-28T17:26:42.933Z,3.00
2019-01-28T17:29:12.450Z,3.10
2019-01-28T17:31:42.341Z,3.20
2019-01-28T17:34:12.212Z,3.10
2019-01-28T17:36:42.215Z,3.10
2019-01-28T17:39:11.440Z,3.10
2019-01-28T17:41:41.132Z,3.00
2019-01-28T17:44:11.384Z,3.00
2019-01-28T17:46:41.370Z,3.00
2019-01-28T17:49:11.014Z,3.00
2019-01-28T17:51:40.891Z,3.00
2019-01-28T17:54:10.649Z,2.90
2019-01-28T17:56:40.438Z,2.80
2019-01-28T17:59:10.335Z,2.80
2019-01-28T18:01:40.168Z,3.00
2019-01-28T18:04:09.930Z,3.00
2019-01-28T18:06:39.568Z,2.90
2019-01-28T18:09:10.053Z,2.90
2019-01-28T18:11:39.931Z,2.70
2019-01-28T18:14:09.283Z,2.70
2019-01-28T18:16:39.264Z,2.70
2019-01-28T18:19:09.011Z,2.70
2019-01-28T18:21:38.611Z,2.60
2019-01-28T18:24:08.369Z,2.70
2019-01-28T18:26:38.027Z,2.70
2019-01-28T18:29:08.248Z,2.70
2019-01-28T18:31:37.960Z,2.70
2019-01-28T18:34:07.868Z,2.50
2019-01-28T18:36:37.526Z,2.50
2019-01-28T18:39:10.544Z,2.50
2019-01-28T18:41:40.407Z,2.40
2019-01-28T18:44:10.170Z,2.40
2019-01-28T18:46:39.745Z,2.40
2019-01-28T18:49:09.568Z,2.40
2019-01-28T18:51:39.327Z,2.40
2019-01-28T18:54:08.912Z,2.40
2019-01-28T18:56:38.544Z,2.30
2019-01-28T18:59:08.611Z,2.30
2019-01-28T19:01:38.453Z,2.20
2019-01-28T19:04:08.058Z,2.30
2019-01-28T19:06:59.315Z,2.20
2019-01-28T19:09:42.267Z,2.30
2019-01-28T19:12:43.022Z,2.30
2019-01-28T19:15:31.672Z,2.20
2019-01-28T19:18:15.748Z,2.30
2019-01-28T19:21:10.717Z,2.40
2019-01-28T19:23:40.460Z,2.40
2019-01-28T19:26:10.884Z,2.30
2019-01-28T19:28:40.525Z,2.30
2019-01-28T19:31:10.106Z,2.30
2019-01-28T19:33:39.500Z,2.30
2019-01-28T19:36:09.023Z,2.30
2019-01-28T19:38:38.721Z,2.30
2019-01-28T19:41:08.606Z,2.30
2019-01-28T19:43:38.066Z,2.30
2019-01-28T19:46:08.114Z,2.20
2019-01-28T19:48:37.712Z,2.20
2019-01-28T19:51:15.425Z,2.10
2019-01-28T19:53:39.081Z,2.10
2019-01-28T19:56:09.735Z,2.10
2019-01-28T19:58:39.320Z,2.10
2019-01-28T20:01:09.562Z,2.10
2019-01-28T20:03:39.015Z,2.10
2019-01-28T20:06:08.844Z,2.00
2019-01-28T20:08:38.551Z,1.90
2019-01-28T20:11:08.170Z,1.90
2019-01-28T20:13:38.000Z,2.00
2019-01-28T20:16:07.763Z,2.00
2019-01-28T20:18:37.488Z,1.90
2019-01-28T20:21:07.281Z,1.90
2019-01-28T20:23:36.882Z,1.90
2019-01-28T20:26:06.814Z,1.90
2019-01-28T20:28:36.950Z,1.90
2019-01-28T20:31:07.521Z,1.80
2019-01-28T20:33:36.800Z,1.90
2019-01-28T20:36:06.920Z,1.90
2019-01-28T20:38:36.679Z,2.00
2019-01-28T20:41:06.677Z,1.90
2019-01-28T20:43:36.321Z,2.00
2019-01-28T20:46:06.596Z,2.00
2019-01-28T20:48:36.443Z,1.90
2019-01-28T20:51:06.221Z,1.90
2019-01-28T20:53:35.534Z,1.90
2019-01-28T20:56:05.381Z,1.80
2019-01-28T20:58:34.815Z,1.80
2019-01-28T21:01:04.524Z,1.90
2019-01-28T21:03:34.300Z,1.90
2019-01-28T21:06:04.431Z,1.80
2019-01-28T21:08:34.305Z,1.80
2019-01-28T21:11:04.346Z,1.80
2019-01-28T21:13:33.971Z,1.70
2019-01-28T21:16:04.333Z,1.60
2019-01-28T21:18:34.040Z,1.70
2019-01-28T21:21:04.041Z,1.60
2019-01-28T21:23:33.506Z,1.60
2019-01-28T21:26:03.291Z,1.50
2019-01-28T21:28:33.206Z,1.50
2019-01-28T21:31:02.841Z,1.40
2019-01-28T21:33:32.533Z,1.40
2019-01-28T21:36:21.169Z,1.40
2019-01-28T21:38:52.317Z,1.50
2019-01-28T21:41:22.640Z,1.60
2019-01-28T21:43:52.553Z,1.40
2019-01-28T21:46:22.640Z,1.30
2019-01-28T21:48:52.813Z,1.30
2019-01-28T21:51:22.515Z,1.30
2019-01-28T21:53:52.034Z,1.40
2019-01-28T21:56:21.598Z,1.50
2019-01-28T21:58:51.309Z,1.50
2019-01-28T22:01:21.196Z,1.40
2019-01-28T22:03:50.723Z,1.40
2019-01-28T22:06:20.480Z,1.40
2019-01-28T22:08:50.044Z,1.40
2019-01-28T22:11:19.988Z,1.40
2019-01-28T22:13:49.868Z,1.30
2019-01-28T22:16:19.572Z,1.40
2019-01-28T22:18:49.665Z,1.40
2019-01-28T22:21:19.462Z,1.40
2019-01-28T22:23:49.123Z,1.30
2019-01-28T22:26:19.334Z,1.30
2019-01-28T22:28:49.391Z,1.20
2019-01-28T22:31:19.393Z,1.30
2019-01-28T22:33:49.392Z,1.30
2019-01-28T22:36:18.979Z,1.30
2019-01-28T22:38:49.550Z,1.30
2019-01-28T22:41:19.751Z,1.30
2019-01-28T22:43:49.647Z,1.20
2019-01-28T22:46:19.528Z,1.30
2019-01-28T22:48:49.464Z,1.40
2019-01-28T22:51:19.272Z,1.40
2019-01-28T22:53:49.031Z,1.40
2019-01-28T22:56:19.101Z,1.40
2019-01-28T22:58:48.709Z,1.40
2019-01-28T23:01:24.430Z,1.30
2019-01-28T23:03:54.320Z,1.30
2019-01-28T23:06:24.569Z,1.30
2019-01-28T23:08:54.315Z,1.40
2019-01-28T23:11:24.208Z,1.30
2019-01-28T23:13:54.124Z,1.40
2019-01-28T23:16:23.960Z,1.30
2019-01-28T23:18:53.656Z,1.40
2019-01-28T23:21:23.712Z,1.20
2019-01-28T23:23:53.568Z,1.10
2019-01-28T23:26:23.079Z,1.20
2019-01-28T23:28:52.867Z,1.20
2019-01-28T23:31:22.751Z,1.20
2019-01-28T23:33:52.645Z,1.10
2019-01-28T23:36:22.273Z,1.20
2019-01-28T23:38:52.031Z,1.10
2019-01-28T23:41:22.271Z,1.20
2019-01-28T23:43:52.026Z,1.20
2019-01-28T23:46:21.495Z,1.10
2019-01-28T23:48:51.308Z,1.10
2019-01-28T23:51:21.243Z,1.20
2019-01-28T23:54:03.332Z,1.10
2019-01-28T23:56:33.787Z,1.20
2019-01-28T23:59:03.732Z,1.10
